• Join FlightAware (Why Join?)
  • Login
  • US Flag 
04:42PM EDT


 

Airport Tracker/Info


-or-


 

Live Flight TrackerFlight Track Log ✈ N57346 ✈ 21-Jul-2013 ✈ N96 - N96

Flight Track Log - Related Links

Times and Time Zones

All times are in EDT time to prevent confusion due to time zone crossing. See the N57346 flight status page for this flight to view local times or setup timezone preferences in your user account.

Time Position Orientation Groundspeed Altitude Reporting Facility
EDT Latitude Longitude Course Direction KTS MPH feet Rate Location/Type
11:42AM 40.8975 -77.8186 290° West 79 91 5,000  Level New York Center
11:43AM 40.8981 -77.8075 86° East 31 36 5,000 -1,260 Level New York Center
11:44AM 40.8653 -77.8675 234° Southwest 31 36 2,600  Descending New York Center
11:45AM 40.8761 -77.8986 295° West 127 146 5,000 720 Climbing New York Center
11:46AM 40.8850 -77.9244 294° West 91 105 4,100 -120 Descending New York Center
11:47AM 40.8855 -77.8162 290° West  Level Estimated
11:47AM 40.8914 -77.9525 287° West 86 99 4,800  Level New York Center
11:48AM 40.9039 -77.9894 294° West 92 106 5,100 180 Climbing New York Center
11:49AM 40.9161 -78.0278 293° West 112 129 5,200 240 Climbing Cleveland Center
11:50AM 40.9297 -78.0683 294° West 123 142 5,600 360 Climbing Cleveland Center
11:51AM 40.9408 -78.1036 293° West 123 142 6,000 180 Climbing Cleveland Center
11:52AM 40.9522 -78.1444 290° West 118 136 6,000  Level Cleveland Center
11:53AM 40.9656 -78.1908 291° West 123 142 6,100  Climbing Cleveland Center
11:54AM 40.9792 -78.2342 293° West 129 148 6,100 -60 Level Cleveland Center
11:55AM 40.9925 -78.2806 291° West 129 148 6,000 -60 Descending Cleveland Center
11:56AM 41.0058 -78.3242 292° West 129 148 6,000  Level Cleveland Center
11:57AM 41.0192 -78.3678 292° West 129 148 6,000  Level Cleveland Center
11:58AM 41.0325 -78.4114 292° West 129 148 6,000  Level Cleveland Center
11:59AM 41.0458 -78.4522 293° West 129 148 6,000  Level Cleveland Center
12:00PM 41.0547 -78.4850 290° West 116 133 6,000  Level Cleveland Center
12:01PM 41.0703 -78.5258 297° West 111 128 6,000  Level Cleveland Center
12:02PM 41.0933 -78.5442 329° Northwest 111 128 6,000  Level Cleveland Center
12:03PM 41.1269 -78.5461 358° North 105 121 6,000  Level Cleveland Center
12:04PM 41.1561 -78.5478 358° North 105 121 6,000  Level Cleveland Center
12:05PM 41.1875 -78.5525 354° North 105 121 6,000  Level Cleveland Center
12:06PM 41.2208 -78.5569 354° North 110 127 6,000  Level Cleveland Center
12:07PM 41.2542 -78.5614 354° North 110 127 6,000  Level Cleveland Center
12:08PM 41.2856 -78.5658 354° North 110 127 6,000  Level Cleveland Center
12:09PM 41.3192 -78.5703 354° North 115 132 6,000  Level Cleveland Center
12:10PM 41.3503 -78.5722 357° North 115 132 6,000  Level Cleveland Center
12:11PM 41.3817 -78.5739 358° North 115 132 6,000  Level Cleveland Center
12:12PM 41.4131 -78.5786 354° North 115 132 6,000  Level Cleveland Center
12:13PM 41.4464 -78.5831 354° North 115 132 6,000 -60 Level Cleveland Center
12:14PM 41.4778 -78.5850 357° North 110 127 5,900  Descending Cleveland Center
12:15PM 41.5069 -78.5894 353° North 105 121 6,000  Climbing Cleveland Center
12:16PM 41.5033 -78.6119 258° West 57 66 6,000 -120 Level Cleveland Center
12:17PM 41.4697 -78.6017 167° South 47 54 5,800 -480 Descending Cleveland Center
12:18PM 41.4342 -78.5917 168° South 102 117 5,100 -660 Descending Cleveland Center
12:19PM 41.3964 -78.5847 172° South 133 153 4,500 -480 Descending Cleveland Center
12:20PM 41.3608 -78.5775 171° South 139 160 4,200 -180 Descending Cleveland Center
12:21PM 41.3319 -78.5894 197° South 134 154 4,200  Level Cleveland Center
12:22PM 41.3031 -78.6094 207° Southwest 123 142 4,200  Level Cleveland Center
12:23PM 41.2783 -78.6297 212° Southwest 117 135 4,200 -300 Level Cleveland Center
12:24PM 41.2664 -78.6658 246° West 111 128 3,700 -360 Descending Cleveland Center
12:25PM 41.2544 -78.6994 245° Southwest 106 122 3,500 240 Descending Cleveland Center
12:26PM 41.2447 -78.7328 249° West 101 116 4,200 240 Climbing Cleveland Center
12:27PM 41.2286 -78.7664 237° Southwest 101 116 4,000 -540 Descending Cleveland Center
12:28PM 41.2167 -78.8028 246° West 106 122 3,200 -600 Descending Cleveland Center
12:29PM 41.2025 -78.8306 236° Southwest 106 122 2,900 -480 Descending Cleveland Center
12:30PM 41.1925 -78.8614 247° West 106 122 2,300 -480 Descending Cleveland Center
12:31PM 41.1825 -78.8892 244° Southwest 92 106 2,000 300 Descending Cleveland Center
12:32PM 41.1725 -78.9197 247° West 92 106 2,900 840 Climbing Cleveland Center
12:33PM 41.1750 -78.9500 276° West 92 106 3,700 600 Climbing Cleveland Center
12:34PM 41.1733 -78.9858 266° West 92 106 4,100 180 Climbing Cleveland Center
12:35PM 41.1697 -79.0303 264° West 108 124 4,100 -60 Level Cleveland Center
12:36PM 41.1683 -79.0797 268° West 122 140 4,000 -60 Descending Cleveland Center
12:37PM 41.1669 -79.1267 268° West 129 148 4,000  Level Cleveland Center
12:38PM 41.1633 -79.1739 264° West 129 148 4,000  Level Cleveland Center
12:39PM 41.1619 -79.2206 268° West 129 148 4,000  Level Cleveland Center
12:40PM 41.1603 -79.2675 267° West 134 154 4,000  Level Cleveland Center
12:41PM 41.1567 -79.3228 265° West 140 161 4,000  Level Cleveland Center
12:42PM 41.1531 -79.3697 264° West 140 161 4,000  Level Cleveland Center
12:43PM 41.1494 -79.4167 264° West 140 161 4,000  Level Cleveland Center
12:44PM 41.1436 -79.4608 260° West 135 155 4,000 180 Level Cleveland Center
12:45PM 41.1103 -79.4669 188° South 106 122 4,400 540 Climbing Cleveland Center
12:46PM 41.0997 -79.4425 120° Southeast 70 81 5,100 600 Climbing Cleveland Center
12:47PM 41.0931 -79.4067 104° East 65 75 5,600 540 Climbing Cleveland Center
12:48PM 41.0883 -79.3681 99° East 85 98 6,200 600 Climbing Cleveland Center
12:49PM 41.0839 -79.3297 99° East 97 112 6,900 360 Climbing Cleveland Center
12:50PM 41.0772 -79.2858 101° East 108 124 7,000  Climbing Cleveland Center
12:51PM 41.0703 -79.2364 101° East 118 136 7,000  Level Cleveland Center
12:52PM 41.0656 -79.1869 97° East 125 144 7,000  Level Cleveland Center
12:53PM 41.0586 -79.1403 101° East 125 144 7,000  Level Cleveland Center
12:54PM 41.0519 -79.0908 100° East 125 144 7,000  Level Cleveland Center
12:55PM 41.0469 -79.0414 98° East 125 144 7,000 -60 Level Cleveland Center
12:56PM 41.0400 -78.9919 101° East 125 144 6,900 -60 Descending Cleveland Center
12:57PM 41.0353 -78.9453 98° East 125 144 6,900  Level Cleveland Center
12:58PM 41.0261 -78.8931 103° East 125 144 7,000  Climbing Cleveland Center
12:59PM 41.0211 -78.8439 98° East 125 144 7,000  Level Cleveland Center
01:00PM 41.0142 -78.7972 101° East 125 144 7,000 -60 Level Cleveland Center
01:01PM 41.0094 -78.7533 98° East 125 144 6,900 -60 Descending Cleveland Center
01:02PM 40.9967 -78.6594 100° East 133 153 6,900  Level New York Center
01:03PM 40.9892 -78.6147 103° East 138 159 6,900  Level New York Center
01:04PM 40.9839 -78.5672 98° East 138 159 6,900  Level New York Center
01:05PM 40.9769 -78.5169 100° East 138 159 6,900  Level New York Center
01:06PM 40.9717 -78.4669 98° East 138 159 6,900  Level New York Center
01:07PM 40.9647 -78.4167 100° East 138 159 6,900  Level New York Center
01:08PM 40.9594 -78.3692 98° East 138 159 6,900  Level New York Center
01:09PM 40.9522 -78.3189 101° East 138 159 6,900 -120 Level New York Center
01:10PM 40.9469 -78.2689 98° East 133 153 6,700 -660 Descending New York Center
01:11PM 40.9381 -78.2131 102° East 138 159 5,700 -960 Descending New York Center
01:12PM 40.9306 -78.1656 102° East 138 159 4,800 -720 Descending New York Center
01:13PM 40.9256 -78.1128 97° East 138 159 4,300 -360 Descending New York Center
01:14PM 40.9200 -78.0681 99° East 132 152 4,100 -120 Descending New York Center
01:15PM 40.9164 -78.0211 96° East 126 145 4,100  Level New York Center
01:16PM 40.9189 -77.9828 85° East 121 139 4,100  Level New York Center
01:17PM 40.9386 -77.9986 329° Northwest 57 66 4,200  Climbing New York Center
01:18PM 40.9450 -78.0322 284° West 45 52 4,100  Descending New York Center
01:19PM 40.9256 -78.0442 205° Southwest 54 62 4,200  Climbing New York Center
01:20PM 40.9172 -78.0103 108° East 42 48 4,100 -240 Descending New York Center
01:21PM 40.9114 -77.9683 100° East 80 92 3,800 -300 Descending New York Center
01:22PM 40.9056 -77.9264 100° East 107 123 3,500 -360 Descending New York Center
01:23PM 40.8975 -77.8872 105° East 112 129 3,200 -600 Descending New York Center
01:24PM 40.8897 -77.8453 104° East 112 129 2,400 -540 Descending New York Center
01:25PM 40.8831 -77.8144 106° East 112 129 2,200 -240 Descending New York Center